• Join FlightAware (Why Join?)
  • Login
  • US Flag 
03:40AM EST


 

Airport Tracker/Info


-or-


 

Live Flight TrackerFlight Track Log ✈ EJA396 ✈ 18-Dec-2013 ✈ KDNV - KPWK

Flight Track Log - Related Links

Times and Time Zones

All times are in EST time to prevent confusion due to time zone crossing. See the EJA396 flight status page for this flight to view local times or setup timezone preferences in your user account.

Time Position Orientation Groundspeed Altitude Reporting Facility
EST Latitude Longitude Course Direction KTS MPH feet Rate Location/Type
04:57PM 40.1547 -87.5806 North 210 242 12,000  Level Chicago Center
04:58PM 40.1886 -87.5011 61° Northeast 307 353 5,800 -1,200 Descending Chicago Center
04:59PM 40.2647 -87.4906 North 285 328 9,600 3,000 Climbing Chicago Center
05:00PM 40.3639 -87.4858 North 294 338 12,000 1,140 Climbing Chicago Center
05:01PM 40.4631 -87.4781 North 350 403 12,000  Level Chicago Center
05:02PM 40.5614 -87.4700 North 355 409 12,000  Level Chicago Center
05:03PM 40.6754 -87.6699 North  Level Estimated
05:03PM 40.6586 -87.4636 North 353 406 12,000  Level Chicago Center
05:04PM 40.7578 -87.4564 North 356 410 12,000 -600 Level Chicago Center
05:06PM 40.8711 -87.4478 North 345 397 10,800 -1,380 Descending Chicago Center
05:07PM 40.9547 -87.4428 North 311 358 9,200 -1,620 Descending Chicago Center
05:08PM 41.0311 -87.4381 North 285 328 7,500 -1,560 Descending Chicago Center
05:09PM 41.1097 -87.4319 North 283 326 6,000 -1,500 Descending Chicago Center
05:10PM 41.1864 -87.4275 North 281 323 4,500 -1,080 Descending Chicago Center
05:11PM 41.2761 -87.4036 11° North 289 333 3,800 -360 Descending Chicago Center
05:12PM 41.3536 -87.3711 17° North 289 333 3,800  Level Chicago Center
05:13PM 41.4306 -87.3364 19° North 292 336 3,800  Level Chicago Center
05:14PM 41.5078 -87.3300 North 281 323 3,800  Level Chicago Center
05:15PM 41.5831 -87.3400 354° North 272 313 3,800  Level Chicago Center
05:16PM 41.6731 -87.3533 354° North 273 314 3,800  Level Chicago Center
05:17PM 41.7486 -87.3642 354° North 274 315 3,800 -120 Level Chicago Center
05:18PM 41.8239 -87.3767 353° North 274 315 3,600 -360 Descending Chicago Center
05:19PM 41.8914 -87.3869 354° North 264 304 3,100 -420 Descending Chicago Center
05:20PM 41.9531 -87.3942 355° North 245 282 2,800 -180 Descending Chicago Center
05:21PM 42.0233 -87.4264 341° North 239 275 2,800  Level Chicago Center
05:22PM 42.0664 -87.4753 320° Northwest 215 247 2,800  Level Chicago Center
05:23PM 42.1086 -87.5258 318° Northwest 209 241 2,800  Level Chicago Center
05:24PM 42.1508 -87.5764 318° Northwest 206 237 2,800  Level Chicago Center
05:25PM 42.1925 -87.6242 320° Northwest 203 234 2,800  Level Chicago Center
05:26PM 42.2436 -87.6789 322° Northwest 199 229 2,800  Level Chicago Center
05:27PM 42.2742 -87.7317 308° West 187 215 2,800  Level Chicago Center
05:28PM 42.2883 -87.7925 287° West 175 201 2,800  Level Chicago Center
05:29PM 42.2958 -87.8539 279° West 171 197 2,800  Level Chicago Center
05:30PM 42.3014 -87.9111 277° West 163 188 2,800  Level Chicago Center
05:31PM 42.3050 -87.9667 275° West 157 181 2,800 -240 Level Chicago Center
05:32PM 42.2603 -87.9772 190° South 151 174 2,400 -300 Descending Chicago Center
05:33PM 42.2211 -87.9622 164° South 149 171 2,200 -240 Descending Chicago Center
05:34PM 42.1833 -87.9411 158° South 148 170 2,000 -300 Descending Chicago Center
05:36PM 42.1525 -87.9256 159° South 143 165 1,700 -300 Descending Chicago Center
05:38PM 42.1143 -87.9015 169° South  Level Estimated